N667JA KPHF-KPHF
Flight info
| Callsign | N667JA |
|---|---|
| Flight time | 1h 49m |
| Altitude | 8000 |
| Route | RIC MOL KSHD MOL RIC KPHF |
| Aircraft | B90C/L-G/S |
Departure
| Time | 2026-04-19 20:07 |
|---|---|
| Airport | Newport News Williamsburg International Airport (KPHF) |
Arrival
| Time | 2026-04-19 21:56 |
|---|---|
| Airport | Newport News Williamsburg International Airport (KPHF) |
| Time | Latitude | Longitude | Altitude | Speed | Heading |
|---|---|---|---|---|---|
| 2026-04-19 19:56 | 37.13567 | -76.49937 | 37 ft | 0 kts | 13° |
| 2026-04-19 20:03 | 37.13573 | -76.49931 | 37 ft | 4 kts | 46° |
| 2026-04-19 20:03 | 37.13582 | -76.49906 | 37 ft | 4 kts | 68° |
| 2026-04-19 20:03 | 37.13594 | -76.49843 | 37 ft | 9 kts | 109° |
| 2026-04-19 20:03 | 37.13524 | -76.49827 | 37 ft | 13 kts | 180° |
| 2026-04-19 20:04 | 37.13415 | -76.49836 | 36 ft | 16 kts | 189° |
| 2026-04-19 20:04 | 37.13297 | -76.49871 | 35 ft | 17 kts | 197° |
| 2026-04-19 20:04 | 37.13179 | -76.49910 | 34 ft | 18 kts | 192° |
| 2026-04-19 20:04 | 37.13049 | -76.49948 | 34 ft | 19 kts | 192° |
| 2026-04-19 20:05 | 37.12905 | -76.49987 | 34 ft | 21 kts | 193° |
| 2026-04-19 20:05 | 37.12751 | -76.50033 | 34 ft | 22 kts | 192° |
| 2026-04-19 20:05 | 37.12627 | -76.50145 | 34 ft | 17 kts | 238° |
| 2026-04-19 20:05 | 37.12550 | -76.50163 | 34 ft | 1 kts | 145° |
| 2026-04-19 20:06 | 37.12528 | -76.50108 | 34 ft | 12 kts | 81° |
| 2026-04-19 20:06 | 37.12665 | -76.49829 | 34 ft | 89 kts | 58° |
| 2026-04-19 20:06 | 37.13126 | -76.48921 | 70 ft | 147 kts | 54° |
| 2026-04-19 20:06 | 37.13650 | -76.47671 | 393 ft | 176 kts | 60° |
| 2026-04-19 20:07 | 37.14314 | -76.46314 | 888 ft | 182 kts | 45° |
| 2026-04-19 20:07 | 37.15374 | -76.45395 | 1031 ft | 195 kts | 13° |
| 2026-04-19 20:07 | 37.16773 | -76.45686 | 1001 ft | 219 kts | 330° |
| 2026-04-19 20:07 | 37.17759 | -76.47253 | 995 ft | 242 kts | 292° |
| 2026-04-19 20:08 | 37.17872 | -76.49444 | 1010 ft | 256 kts | 271° |
| 2026-04-19 20:08 | 37.17858 | -76.51708 | 1149 ft | 257 kts | 272° |
| 2026-04-19 20:08 | 37.17842 | -76.53889 | 1548 ft | 249 kts | 273° |
| 2026-04-19 20:08 | 37.17829 | -76.56015 | 1929 ft | 243 kts | 274° |
| 2026-04-19 20:09 | 37.17833 | -76.58128 | 2299 ft | 238 kts | 278° |
| 2026-04-19 20:09 | 37.18311 | -76.60071 | 2643 ft | 230 kts | 296° |
| 2026-04-19 20:09 | 37.19003 | -76.61863 | 3000 ft | 226 kts | 301° |
| 2026-04-19 20:09 | 37.19756 | -76.63599 | 3352 ft | 224 kts | 302° |
| 2026-04-19 20:10 | 37.20518 | -76.65308 | 3705 ft | 222 kts | 301° |
| 2026-04-19 20:10 | 37.21271 | -76.66984 | 4053 ft | 221 kts | 301° |
| 2026-04-19 20:10 | 37.22014 | -76.68640 | 4397 ft | 220 kts | 300° |
| 2026-04-19 20:10 | 37.22748 | -76.70278 | 4732 ft | 219 kts | 300° |
| 2026-04-19 20:11 | 37.23496 | -76.71948 | 5076 ft | 217 kts | 299° |
| 2026-04-19 20:11 | 37.24236 | -76.73596 | 5410 ft | 217 kts | 299° |
| 2026-04-19 20:11 | 37.24959 | -76.75214 | 5742 ft | 216 kts | 299° |
| 2026-04-19 20:11 | 37.25691 | -76.76849 | 6076 ft | 215 kts | 299° |
| 2026-04-19 20:12 | 37.26421 | -76.78472 | 6405 ft | 214 kts | 298° |
| 2026-04-19 20:12 | 37.27140 | -76.80077 | 6728 ft | 212 kts | 299° |
| 2026-04-19 20:12 | 37.27867 | -76.81697 | 7055 ft | 211 kts | 298° |
| 2026-04-19 20:12 | 37.28577 | -76.83279 | 7368 ft | 211 kts | 298° |
| 2026-04-19 20:13 | 37.29312 | -76.84917 | 7675 ft | 211 kts | 298° |
| 2026-04-19 20:13 | 37.30036 | -76.86533 | 7949 ft | 212 kts | 297° |
| 2026-04-19 20:13 | 37.30761 | -76.88160 | 8000 ft | 220 kts | 297° |
| 2026-04-19 20:13 | 37.31525 | -76.89871 | 8012 ft | 227 kts | 297° |
| 2026-04-19 20:14 | 37.32310 | -76.91631 | 8017 ft | 232 kts | 297° |
| 2026-04-19 20:14 | 37.33116 | -76.93434 | 8013 ft | 235 kts | 297° |
| 2026-04-19 20:14 | 37.33926 | -76.95249 | 8009 ft | 237 kts | 297° |
| 2026-04-19 20:14 | 37.34737 | -76.97066 | 8009 ft | 238 kts | 297° |
| 2026-04-19 20:15 | 37.35281 | -76.98292 | 8006 ft | 238 kts | 297° |
| 2026-04-19 20:15 | 37.36380 | -77.00761 | 8009 ft | 239 kts | 298° |
| 2026-04-19 20:15 | 37.37210 | -77.02618 | 8009 ft | 239 kts | 297° |
| 2026-04-19 20:15 | 37.38030 | -77.04459 | 8007 ft | 239 kts | 298° |
| 2026-04-19 20:16 | 37.38856 | -77.06306 | 8003 ft | 239 kts | 298° |
| 2026-04-19 20:16 | 37.39683 | -77.08168 | 8006 ft | 239 kts | 298° |
| 2026-04-19 20:16 | 37.40488 | -77.09982 | 8001 ft | 239 kts | 297° |
| 2026-04-19 20:16 | 37.41303 | -77.11815 | 8006 ft | 239 kts | 298° |
| 2026-04-19 20:17 | 37.42113 | -77.13641 | 7997 ft | 239 kts | 298° |
| 2026-04-19 20:17 | 37.42936 | -77.15492 | 7998 ft | 240 kts | 298° |
| 2026-04-19 20:17 | 37.43737 | -77.17302 | 7995 ft | 240 kts | 298° |
| 2026-04-19 20:17 | 37.44551 | -77.19138 | 7994 ft | 239 kts | 297° |
| 2026-04-19 20:18 | 37.45356 | -77.20958 | 7994 ft | 239 kts | 298° |
| 2026-04-19 20:18 | 37.46164 | -77.22774 | 7989 ft | 229 kts | 297° |
| 2026-04-19 20:18 | 37.46900 | -77.24450 | 7992 ft | 215 kts | 297° |
| 2026-04-19 20:18 | 37.47596 | -77.26024 | 7991 ft | 197 kts | 298° |
| 2026-04-19 20:19 | 37.48234 | -77.27467 | 7988 ft | 179 kts | 297° |
| 2026-04-19 20:19 | 37.48817 | -77.28786 | 7987 ft | 167 kts | 297° |
| 2026-04-19 20:19 | 37.49353 | -77.30006 | 7990 ft | 158 kts | 297° |
| 2026-04-19 20:19 | 37.49876 | -77.31194 | 7993 ft | 152 kts | 297° |
| 2026-04-19 20:20 | 37.50303 | -77.32385 | 7993 ft | 146 kts | 285° |
| 2026-04-19 20:20 | 37.50593 | -77.33621 | 7996 ft | 143 kts | 288° |
| 2026-04-19 20:20 | 37.50874 | -77.34816 | 7994 ft | 141 kts | 287° |
| 2026-04-19 20:20 | 37.51149 | -77.35996 | 7995 ft | 139 kts | 287° |
| 2026-04-19 20:21 | 37.51419 | -77.37154 | 7994 ft | 138 kts | 287° |
| 2026-04-19 20:21 | 37.51688 | -77.38308 | 7995 ft | 137 kts | 287° |
| 2026-04-19 20:21 | 37.51953 | -77.39457 | 8003 ft | 136 kts | 287° |
| 2026-04-19 20:21 | 37.52213 | -77.40580 | 8000 ft | 137 kts | 287° |
| 2026-04-19 20:22 | 37.52482 | -77.41745 | 8001 ft | 136 kts | 287° |
| 2026-04-19 20:22 | 37.52746 | -77.42889 | 8004 ft | 136 kts | 287° |
| 2026-04-19 20:22 | 37.53007 | -77.44019 | 7997 ft | 136 kts | 287° |
| 2026-04-19 20:22 | 37.53270 | -77.45155 | 7995 ft | 135 kts | 287° |
| 2026-04-19 20:23 | 37.53538 | -77.46322 | 8001 ft | 143 kts | 287° |
| 2026-04-19 20:23 | 37.53821 | -77.47552 | 7998 ft | 150 kts | 288° |
| 2026-04-19 20:23 | 37.54119 | -77.48839 | 7999 ft | 155 kts | 288° |
| 2026-04-19 20:23 | 37.54418 | -77.50137 | 7999 ft | 158 kts | 288° |
| 2026-04-19 20:24 | 37.54727 | -77.51485 | 7997 ft | 161 kts | 288° |
| 2026-04-19 20:24 | 37.55043 | -77.52859 | 7997 ft | 163 kts | 288° |
| 2026-04-19 20:24 | 37.55356 | -77.54220 | 7999 ft | 164 kts | 287° |
| 2026-04-19 20:24 | 37.55680 | -77.55635 | 7998 ft | 165 kts | 288° |
| 2026-04-19 20:25 | 37.56001 | -77.57037 | 7999 ft | 166 kts | 288° |
| 2026-04-19 20:25 | 37.56330 | -77.58467 | 8000 ft | 167 kts | 288° |
| 2026-04-19 20:25 | 37.56660 | -77.59902 | 7997 ft | 168 kts | 287° |
| 2026-04-19 20:25 | 37.56985 | -77.61332 | 7993 ft | 168 kts | 287° |
| 2026-04-19 20:26 | 37.57313 | -77.62760 | 7992 ft | 168 kts | 287° |
| 2026-04-19 20:26 | 37.57638 | -77.64186 | 7994 ft | 168 kts | 287° |
| 2026-04-19 20:26 | 37.57960 | -77.65595 | 8000 ft | 168 kts | 287° |
| 2026-04-19 20:26 | 37.58284 | -77.67019 | 7999 ft | 168 kts | 287° |
| 2026-04-19 20:27 | 37.58614 | -77.68462 | 7999 ft | 169 kts | 287° |
| 2026-04-19 20:27 | 37.58943 | -77.69908 | 7999 ft | 169 kts | 287° |
| 2026-04-19 20:27 | 37.59271 | -77.71344 | 7997 ft | 169 kts | 288° |
| 2026-04-19 20:27 | 37.59596 | -77.72766 | 8001 ft | 169 kts | 287° |
| 2026-04-19 20:28 | 37.59924 | -77.74212 | 8002 ft | 169 kts | 287° |
| 2026-04-19 20:28 | 37.60251 | -77.75656 | 7998 ft | 169 kts | 288° |
| 2026-04-19 20:28 | 37.60582 | -77.77104 | 7998 ft | 169 kts | 287° |
| 2026-04-19 20:28 | 37.60907 | -77.78539 | 8000 ft | 169 kts | 287° |
| 2026-04-19 20:29 | 37.61234 | -77.79977 | 8000 ft | 169 kts | 287° |
| 2026-04-19 20:29 | 37.61564 | -77.81432 | 7999 ft | 170 kts | 287° |
| 2026-04-19 20:29 | 37.61894 | -77.82886 | 7997 ft | 170 kts | 287° |
| 2026-04-19 20:30 | 37.62546 | -77.85773 | 8002 ft | 170 kts | 288° |
| 2026-04-19 20:30 | 37.62873 | -77.87219 | 8003 ft | 170 kts | 288° |
| 2026-04-19 20:30 | 37.63205 | -77.88679 | 8002 ft | 170 kts | 288° |
| 2026-04-19 20:30 | 37.63535 | -77.90143 | 7997 ft | 170 kts | 288° |
| 2026-04-19 20:31 | 37.63862 | -77.91592 | 8000 ft | 170 kts | 288° |
| 2026-04-19 20:31 | 37.64189 | -77.93037 | 7999 ft | 170 kts | 287° |
| 2026-04-19 20:31 | 37.64515 | -77.94485 | 7998 ft | 170 kts | 287° |
| 2026-04-19 20:31 | 37.64845 | -77.95943 | 8003 ft | 170 kts | 287° |
| 2026-04-19 20:32 | 37.65174 | -77.97408 | 8004 ft | 170 kts | 287° |
| 2026-04-19 20:32 | 37.65499 | -77.98854 | 8005 ft | 170 kts | 287° |
| 2026-04-19 20:32 | 37.65828 | -78.00313 | 8001 ft | 170 kts | 287° |
| 2026-04-19 20:32 | 37.66153 | -78.01761 | 7996 ft | 170 kts | 287° |
| 2026-04-19 20:33 | 37.66479 | -78.03215 | 7993 ft | 169 kts | 288° |
| 2026-04-19 20:33 | 37.66807 | -78.04672 | 7999 ft | 169 kts | 288° |
| 2026-04-19 20:33 | 37.67131 | -78.06118 | 8002 ft | 169 kts | 288° |
| 2026-04-19 20:33 | 37.67458 | -78.07567 | 8007 ft | 170 kts | 287° |
| 2026-04-19 20:34 | 37.67780 | -78.09010 | 7999 ft | 170 kts | 288° |
| 2026-04-19 20:34 | 37.68108 | -78.10474 | 8005 ft | 170 kts | 287° |
| 2026-04-19 20:34 | 37.68436 | -78.11943 | 7999 ft | 170 kts | 288° |
| 2026-04-19 20:34 | 37.68761 | -78.13390 | 7999 ft | 170 kts | 288° |
| 2026-04-19 20:35 | 37.69087 | -78.14850 | 7996 ft | 170 kts | 288° |
| 2026-04-19 20:35 | 37.69414 | -78.16310 | 8000 ft | 170 kts | 288° |
| 2026-04-19 20:35 | 37.69736 | -78.17754 | 7998 ft | 170 kts | 288° |
| 2026-04-19 20:35 | 37.70061 | -78.19211 | 8000 ft | 170 kts | 288° |
| 2026-04-19 20:36 | 37.70387 | -78.20673 | 7999 ft | 170 kts | 288° |
| 2026-04-19 20:36 | 37.70710 | -78.22131 | 8000 ft | 170 kts | 288° |
| 2026-04-19 20:36 | 37.71035 | -78.23586 | 7997 ft | 170 kts | 288° |
| 2026-04-19 20:36 | 37.71360 | -78.25046 | 7996 ft | 170 kts | 288° |
| 2026-04-19 20:37 | 37.71685 | -78.26504 | 7994 ft | 170 kts | 288° |
| 2026-04-19 20:37 | 37.72014 | -78.27985 | 7991 ft | 170 kts | 288° |
| 2026-04-19 20:37 | 37.72338 | -78.29439 | 7992 ft | 170 kts | 288° |
| 2026-04-19 20:37 | 37.72657 | -78.30879 | 7990 ft | 170 kts | 288° |
| 2026-04-19 20:38 | 37.72974 | -78.32312 | 7987 ft | 170 kts | 288° |
| 2026-04-19 20:38 | 37.73298 | -78.33771 | 7991 ft | 170 kts | 288° |
| 2026-04-19 20:38 | 37.73617 | -78.35205 | 7994 ft | 169 kts | 288° |
| 2026-04-19 20:38 | 37.73937 | -78.36655 | 7994 ft | 169 kts | 288° |
| 2026-04-19 20:39 | 37.74257 | -78.38107 | 7996 ft | 169 kts | 288° |
| 2026-04-19 20:39 | 37.74574 | -78.39539 | 7993 ft | 169 kts | 288° |
| 2026-04-19 20:39 | 37.74896 | -78.40990 | 7990 ft | 169 kts | 288° |
| 2026-04-19 20:39 | 37.75215 | -78.42433 | 7992 ft | 169 kts | 288° |
| 2026-04-19 20:40 | 37.75535 | -78.43882 | 7995 ft | 169 kts | 288° |
| 2026-04-19 20:40 | 37.75857 | -78.45345 | 7996 ft | 170 kts | 288° |
| 2026-04-19 20:40 | 37.76175 | -78.46787 | 7994 ft | 170 kts | 288° |
| 2026-04-19 20:40 | 37.76495 | -78.48238 | 7992 ft | 170 kts | 288° |
| 2026-04-19 20:41 | 37.76817 | -78.49701 | 7991 ft | 170 kts | 288° |
| 2026-04-19 20:41 | 37.77135 | -78.51146 | 7993 ft | 170 kts | 288° |
| 2026-04-19 20:41 | 37.77452 | -78.52597 | 7993 ft | 169 kts | 288° |
| 2026-04-19 20:41 | 37.77770 | -78.54042 | 7882 ft | 174 kts | 289° |
| 2026-04-19 20:42 | 37.78100 | -78.55542 | 7850 ft | 174 kts | 288° |
| 2026-04-19 20:42 | 37.78425 | -78.57019 | 7847 ft | 173 kts | 288° |
| 2026-04-19 20:42 | 37.78750 | -78.58499 | 7850 ft | 172 kts | 288° |
| 2026-04-19 20:42 | 37.79067 | -78.59950 | 7846 ft | 171 kts | 288° |
| 2026-04-19 20:43 | 37.79386 | -78.61400 | 7845 ft | 171 kts | 288° |
| 2026-04-19 20:43 | 37.79706 | -78.62865 | 7847 ft | 171 kts | 288° |
| 2026-04-19 20:43 | 37.80027 | -78.64327 | 7843 ft | 170 kts | 288° |
| 2026-04-19 20:43 | 37.80343 | -78.65780 | 7847 ft | 170 kts | 288° |
| 2026-04-19 20:44 | 37.80661 | -78.67241 | 7852 ft | 170 kts | 288° |
| 2026-04-19 20:44 | 37.80979 | -78.68697 | 7853 ft | 170 kts | 288° |
| 2026-04-19 20:44 | 37.81294 | -78.70149 | 7853 ft | 170 kts | 288° |
| 2026-04-19 20:44 | 37.81610 | -78.71596 | 7856 ft | 170 kts | 288° |
| 2026-04-19 20:45 | 37.81924 | -78.73045 | 7857 ft | 171 kts | 288° |
| 2026-04-19 20:45 | 37.82248 | -78.74529 | 7855 ft | 171 kts | 288° |
| 2026-04-19 20:45 | 37.82564 | -78.75982 | 7856 ft | 171 kts | 288° |
| 2026-04-19 20:45 | 37.82882 | -78.77438 | 7787 ft | 175 kts | 287° |
| 2026-04-19 20:46 | 37.83206 | -78.78937 | 7709 ft | 177 kts | 288° |
| 2026-04-19 20:46 | 37.83536 | -78.80461 | 7663 ft | 177 kts | 288° |
| 2026-04-19 20:46 | 37.83866 | -78.81976 | 7617 ft | 177 kts | 288° |
| 2026-04-19 20:46 | 37.84195 | -78.83491 | 7459 ft | 183 kts | 288° |
| 2026-04-19 20:47 | 37.84538 | -78.85072 | 7197 ft | 191 kts | 288° |
| 2026-04-19 20:47 | 37.84900 | -78.86742 | 6933 ft | 195 kts | 288° |
| 2026-04-19 20:47 | 37.85262 | -78.88419 | 6680 ft | 198 kts | 288° |
| 2026-04-19 20:47 | 37.85624 | -78.90093 | 6433 ft | 200 kts | 289° |
| 2026-04-19 20:48 | 37.85992 | -78.91797 | 6187 ft | 202 kts | 289° |
| 2026-04-19 20:48 | 37.86370 | -78.93539 | 6030 ft | 199 kts | 288° |
| 2026-04-19 20:48 | 37.86731 | -78.95216 | 6006 ft | 192 kts | 289° |
| 2026-04-19 20:48 | 37.87077 | -78.96822 | 6008 ft | 188 kts | 289° |
| 2026-04-19 20:49 | 37.87421 | -78.98420 | 6005 ft | 184 kts | 288° |
| 2026-04-19 20:49 | 37.87761 | -78.99999 | 6005 ft | 182 kts | 289° |
| 2026-04-19 20:49 | 37.88090 | -79.01530 | 6005 ft | 181 kts | 289° |
| 2026-04-19 20:49 | 37.88419 | -79.03062 | 6007 ft | 179 kts | 289° |
| 2026-04-19 20:50 | 37.88743 | -79.04578 | 6005 ft | 178 kts | 289° |
| 2026-04-19 20:50 | 37.89070 | -79.06090 | 6006 ft | 178 kts | 289° |
| 2026-04-19 20:50 | 37.89397 | -79.07610 | 6005 ft | 177 kts | 289° |
| 2026-04-19 20:50 | 37.89815 | -79.09042 | 5986 ft | 174 kts | 310° |
| 2026-04-19 20:51 | 37.90914 | -79.09641 | 6011 ft | 181 kts | 353° |
| 2026-04-19 20:51 | 37.92178 | -79.09272 | 6014 ft | 189 kts | 9° |
| 2026-04-19 20:51 | 37.93428 | -79.08675 | 6007 ft | 193 kts | 14° |
| 2026-04-19 20:51 | 37.94674 | -79.08003 | 6005 ft | 194 kts | 15° |
| 2026-04-19 20:52 | 37.95923 | -79.07298 | 6008 ft | 195 kts | 15° |
| 2026-04-19 20:52 | 37.97152 | -79.06593 | 6011 ft | 195 kts | 16° |
| 2026-04-19 20:52 | 37.98403 | -79.05871 | 6002 ft | 195 kts | 16° |
| 2026-04-19 20:52 | 37.99647 | -79.05153 | 6003 ft | 195 kts | 15° |
| 2026-04-19 20:53 | 38.00888 | -79.04439 | 5999 ft | 194 kts | 16° |
| 2026-04-19 20:53 | 38.02140 | -79.03714 | 5998 ft | 194 kts | 16° |
| 2026-04-19 20:53 | 38.03375 | -79.03002 | 6001 ft | 194 kts | 16° |
| 2026-04-19 20:53 | 38.04612 | -79.02284 | 5999 ft | 194 kts | 16° |
| 2026-04-19 20:54 | 38.05867 | -79.01559 | 5999 ft | 193 kts | 16° |
| 2026-04-19 20:54 | 38.07093 | -79.00846 | 6001 ft | 193 kts | 16° |
| 2026-04-19 20:54 | 38.08333 | -79.00127 | 6002 ft | 194 kts | 16° |
| 2026-04-19 20:54 | 38.09548 | -78.99425 | 6109 ft | 189 kts | 16° |
| 2026-04-19 20:55 | 38.10783 | -78.98711 | 6184 ft | 194 kts | 16° |
| 2026-04-19 20:55 | 38.12046 | -78.97981 | 6230 ft | 199 kts | 17° |
| 2026-04-19 20:55 | 38.13335 | -78.97233 | 6232 ft | 203 kts | 17° |
| 2026-04-19 20:55 | 38.14625 | -78.96481 | 6346 ft | 201 kts | 17° |
| 2026-04-19 20:56 | 38.15880 | -78.95750 | 6603 ft | 193 kts | 15° |
| 2026-04-19 20:56 | 38.17110 | -78.95035 | 6823 ft | 190 kts | 14° |
| 2026-04-19 20:56 | 38.18313 | -78.94340 | 7030 ft | 187 kts | 15° |
| 2026-04-19 20:56 | 38.19492 | -78.93654 | 7235 ft | 186 kts | 14° |
| 2026-04-19 20:57 | 38.20683 | -78.92961 | 7433 ft | 186 kts | 14° |
| 2026-04-19 20:57 | 38.21864 | -78.92276 | 7628 ft | 186 kts | 14° |
| 2026-04-19 20:57 | 38.23051 | -78.91585 | 7816 ft | 186 kts | 14° |
| 2026-04-19 20:57 | 38.24210 | -78.90779 | 7985 ft | 198 kts | 33° |
| 2026-04-19 20:58 | 38.24819 | -78.89100 | 8135 ft | 223 kts | 79° |
| 2026-04-19 20:58 | 38.24415 | -78.87163 | 8285 ft | 232 kts | 125° |
| 2026-04-19 20:58 | 38.23146 | -78.85953 | 8438 ft | 221 kts | 170° |
| 2026-04-19 20:58 | 38.21775 | -78.85064 | 8591 ft | 232 kts | 137° |
| 2026-04-19 20:59 | 38.21063 | -78.83235 | 8733 ft | 232 kts | 94° |
| 2026-04-19 20:59 | 38.21251 | -78.81263 | 8889 ft | 226 kts | 75° |
| 2026-04-19 20:59 | 38.20917 | -78.79293 | 8998 ft | 238 kts | 122° |
| 2026-04-19 20:59 | 38.19678 | -78.77943 | 9015 ft | 232 kts | 166° |
| 2026-04-19 21:00 | 38.18173 | -78.77896 | 9022 ft | 210 kts | 211° |
| 2026-04-19 21:00 | 38.16976 | -78.78844 | 9013 ft | 192 kts | 242° |
| 2026-04-19 21:00 | 38.16705 | -78.80362 | 9023 ft | 177 kts | 285° |
| 2026-04-19 21:00 | 38.17492 | -78.81532 | 9021 ft | 186 kts | 329° |
| 2026-04-19 21:01 | 38.18829 | -78.81673 | 9021 ft | 199 kts | 352° |
| 2026-04-19 21:01 | 38.20249 | -78.81570 | 8999 ft | 204 kts | 357° |
| 2026-04-19 21:01 | 38.21672 | -78.81258 | 8976 ft | 209 kts | 3° |
| 2026-04-19 21:01 | 38.23099 | -78.80737 | 8965 ft | 213 kts | 9° |
| 2026-04-19 21:02 | 38.24495 | -78.80009 | 8951 ft | 217 kts | 15° |
| 2026-04-19 21:02 | 38.25861 | -78.79067 | 8937 ft | 222 kts | 21° |
| 2026-04-19 21:02 | 38.27237 | -78.78335 | 8878 ft | 204 kts | 351° |
| 2026-04-19 21:02 | 38.28353 | -78.79168 | 8807 ft | 187 kts | 303° |
| 2026-04-19 21:03 | 38.28157 | -78.80683 | 8681 ft | 221 kts | 216° |
| 2026-04-19 21:03 | 38.26598 | -78.81077 | 8728 ft | 228 kts | 200° |
| 2026-04-19 21:03 | 38.25058 | -78.81553 | 8779 ft | 221 kts | 206° |
| 2026-04-19 21:03 | 38.23618 | -78.82207 | 8819 ft | 216 kts | 212° |
| 2026-04-19 21:04 | 38.22269 | -78.83034 | 8867 ft | 211 kts | 219° |
| 2026-04-19 21:04 | 38.21067 | -78.83984 | 9013 ft | 202 kts | 225° |
| 2026-04-19 21:04 | 38.19958 | -78.85095 | 9031 ft | 200 kts | 231° |
| 2026-04-19 21:04 | 38.18966 | -78.86356 | 9035 ft | 198 kts | 238° |
| 2026-04-19 21:05 | 38.18121 | -78.87716 | 9032 ft | 195 kts | 244° |
| 2026-04-19 21:05 | 38.17408 | -78.89201 | 9032 ft | 191 kts | 251° |
| 2026-04-19 21:05 | 38.16874 | -78.90682 | 9041 ft | 181 kts | 256° |
| 2026-04-19 21:05 | 38.16501 | -78.92178 | 9034 ft | 174 kts | 263° |
| 2026-04-19 21:06 | 38.16228 | -78.93683 | 9029 ft | 172 kts | 261° |
| 2026-04-19 21:06 | 38.15585 | -78.94996 | 9021 ft | 188 kts | 229° |
| 2026-04-19 21:06 | 38.14256 | -78.95551 | 9031 ft | 206 kts | 200° |
| 2026-04-19 21:06 | 38.12841 | -78.95868 | 9032 ft | 205 kts | 201° |
| 2026-04-19 21:07 | 38.11414 | -78.96193 | 9030 ft | 204 kts | 201° |
| 2026-04-19 21:07 | 38.10010 | -78.96534 | 9028 ft | 202 kts | 204° |
| 2026-04-19 21:07 | 38.08680 | -78.97049 | 9030 ft | 196 kts | 212° |
| 2026-04-19 21:07 | 38.07432 | -78.97742 | 9029 ft | 192 kts | 218° |
| 2026-04-19 21:08 | 38.06153 | -78.98308 | 9040 ft | 202 kts | 202° |
| 2026-04-19 21:08 | 38.04801 | -78.98764 | 9113 ft | 194 kts | 211° |
| 2026-04-19 21:08 | 38.03563 | -78.99381 | 9175 ft | 188 kts | 217° |
| 2026-04-19 21:08 | 38.02425 | -79.00150 | 9236 ft | 182 kts | 224° |
| 2026-04-19 21:09 | 38.01390 | -79.01066 | 9291 ft | 176 kts | 230° |
| 2026-04-19 21:09 | 38.00478 | -79.02111 | 9344 ft | 171 kts | 237° |
| 2026-04-19 21:09 | 37.99717 | -79.03238 | 9341 ft | 169 kts | 245° |
| 2026-04-19 21:09 | 37.99063 | -79.04524 | 9277 ft | 170 kts | 251° |
| 2026-04-19 21:10 | 37.98558 | -79.05891 | 9228 ft | 169 kts | 257° |
| 2026-04-19 21:10 | 37.98200 | -79.07310 | 9190 ft | 167 kts | 264° |
| 2026-04-19 21:10 | 37.98007 | -79.08713 | 9317 ft | 157 kts | 270° |
| 2026-04-19 21:10 | 37.97951 | -79.10151 | 9091 ft | 167 kts | 275° |
| 2026-04-19 21:11 | 37.97253 | -79.11365 | 9047 ft | 195 kts | 220° |
| 2026-04-19 21:11 | 37.96013 | -79.12109 | 9031 ft | 199 kts | 213° |
| 2026-04-19 21:11 | 37.94694 | -79.12711 | 9030 ft | 200 kts | 211° |
| 2026-04-19 21:11 | 37.93350 | -79.13251 | 9029 ft | 203 kts | 207° |
| 2026-04-19 21:12 | 37.91927 | -79.13661 | 9028 ft | 206 kts | 202° |
| 2026-04-19 21:12 | 37.90467 | -79.13792 | 9021 ft | 219 kts | 179° |
| 2026-04-19 21:12 | 37.88976 | -79.13187 | 9011 ft | 231 kts | 153° |
| 2026-04-19 21:12 | 37.88082 | -79.11520 | 9015 ft | 233 kts | 93° |
| 2026-04-19 21:13 | 37.88444 | -79.09631 | 9029 ft | 219 kts | 63° |
| 2026-04-19 21:13 | 37.88845 | -79.07763 | 9017 ft | 223 kts | 70° |
| 2026-04-19 21:13 | 37.89106 | -79.05782 | 9021 ft | 226 kts | 77° |
| 2026-04-19 21:13 | 37.89174 | -79.04826 | 9018 ft | 228 kts | 80° |
| 2026-04-19 21:14 | 37.89208 | -79.03182 | 9021 ft | 229 kts | 86° |
| 2026-04-19 21:14 | 37.89173 | -79.02092 | 9021 ft | 230 kts | 90° |
| 2026-04-19 21:14 | 37.88986 | -79.00056 | 9022 ft | 232 kts | 96° |
| 2026-04-19 21:14 | 37.88645 | -78.98067 | 9022 ft | 233 kts | 102° |
| 2026-04-19 21:15 | 37.88141 | -78.96079 | 9022 ft | 234 kts | 109° |
| 2026-04-19 21:15 | 37.87492 | -78.94179 | 9024 ft | 234 kts | 116° |
| 2026-04-19 21:15 | 37.86692 | -78.92345 | 9025 ft | 234 kts | 122° |
| 2026-04-19 21:15 | 37.85764 | -78.90637 | 9026 ft | 233 kts | 129° |
| 2026-04-19 21:16 | 37.84713 | -78.89055 | 9025 ft | 232 kts | 136° |
| 2026-04-19 21:16 | 37.83556 | -78.87624 | 9029 ft | 231 kts | 142° |
| 2026-04-19 21:16 | 37.82295 | -78.86342 | 9023 ft | 230 kts | 149° |
| 2026-04-19 21:16 | 37.80983 | -78.85192 | 9010 ft | 230 kts | 148° |
| 2026-04-19 21:17 | 37.79801 | -78.83773 | 8927 ft | 238 kts | 129° |
| 2026-04-19 21:17 | 37.79047 | -78.81858 | 8844 ft | 239 kts | 102° |
| 2026-04-19 21:17 | 37.78986 | -78.79799 | 8793 ft | 231 kts | 72° |
| 2026-04-19 21:17 | 37.79581 | -78.77975 | 8792 ft | 219 kts | 53° |
| 2026-04-19 21:18 | 37.80347 | -78.76390 | 8965 ft | 202 kts | 41° |
| 2026-04-19 21:18 | 37.81363 | -78.75159 | 8810 ft | 198 kts | 23° |
| 2026-04-19 21:18 | 37.82168 | -78.73534 | 8323 ft | 245 kts | 73° |
| 2026-04-19 21:18 | 37.82243 | -78.71620 | 9273 ft | 195 kts | 84° |
| 2026-04-19 21:19 | 37.82258 | -78.69847 | 9111 ft | 215 kts | 83° |
| 2026-04-19 21:19 | 37.82238 | -78.67883 | 9002 ft | 224 kts | 84° |
| 2026-04-19 21:19 | 37.82106 | -78.65873 | 8986 ft | 230 kts | 99° |
| 2026-04-19 21:19 | 37.81614 | -78.63998 | 9261 ft | 217 kts | 115° |
| 2026-04-19 21:20 | 37.80810 | -78.62376 | 9313 ft | 220 kts | 131° |
| 2026-04-19 21:20 | 37.79805 | -78.60783 | 9105 ft | 235 kts | 126° |
| 2026-04-19 21:20 | 37.79179 | -78.58907 | 9160 ft | 230 kts | 94° |
| 2026-04-19 21:20 | 37.79486 | -78.57004 | 8839 ft | 228 kts | 52° |
| 2026-04-19 21:21 | 37.79938 | -78.55063 | 8874 ft | 236 kts | 84° |
| 2026-04-19 21:21 | 37.79518 | -78.53010 | 8864 ft | 240 kts | 117° |
| 2026-04-19 21:21 | 37.78651 | -78.51252 | 9071 ft | 228 kts | 124° |
| 2026-04-19 21:21 | 37.77885 | -78.49532 | 9135 ft | 228 kts | 115° |
| 2026-04-19 21:22 | 37.77586 | -78.48694 | 9055 ft | 233 kts | 111° |
| 2026-04-19 21:22 | 37.77008 | -78.46741 | 9025 ft | 234 kts | 107° |
| 2026-04-19 21:22 | 37.76549 | -78.44771 | 9155 ft | 228 kts | 102° |
| 2026-04-19 21:22 | 37.76173 | -78.42827 | 9146 ft | 230 kts | 100° |
| 2026-04-19 21:23 | 37.75815 | -78.40842 | 9108 ft | 233 kts | 100° |
| 2026-04-19 21:23 | 37.75447 | -78.38832 | 9147 ft | 232 kts | 101° |
| 2026-04-19 21:23 | 37.75050 | -78.36843 | 9198 ft | 231 kts | 102° |
| 2026-04-19 21:23 | 37.74590 | -78.34854 | 9186 ft | 234 kts | 106° |
| 2026-04-19 21:24 | 37.74054 | -78.32903 | 9182 ft | 234 kts | 110° |
| 2026-04-19 21:24 | 37.73433 | -78.31016 | 9228 ft | 232 kts | 114° |
| 2026-04-19 21:24 | 37.72702 | -78.29170 | 9191 ft | 235 kts | 120° |
| 2026-04-19 21:24 | 37.71851 | -78.27416 | 9181 ft | 234 kts | 126° |
| 2026-04-19 21:25 | 37.70879 | -78.25787 | 9247 ft | 230 kts | 133° |
| 2026-04-19 21:25 | 37.69807 | -78.24270 | 9149 ft | 236 kts | 133° |
| 2026-04-19 21:25 | 37.68784 | -78.22555 | 9072 ft | 239 kts | 126° |
| 2026-04-19 21:25 | 37.67902 | -78.20773 | 9030 ft | 240 kts | 123° |
| 2026-04-19 21:26 | 37.67001 | -78.18957 | 9006 ft | 239 kts | 123° |
| 2026-04-19 21:26 | 37.66117 | -78.17176 | 8996 ft | 237 kts | 123° |
| 2026-04-19 21:26 | 37.65234 | -78.15409 | 9000 ft | 236 kts | 123° |
| 2026-04-19 21:26 | 37.64357 | -78.13660 | 9006 ft | 235 kts | 123° |
| 2026-04-19 21:27 | 37.63490 | -78.11918 | 9003 ft | 235 kts | 123° |
| 2026-04-19 21:27 | 37.62611 | -78.10167 | 9003 ft | 234 kts | 124° |
| 2026-04-19 21:27 | 37.61755 | -78.08431 | 9005 ft | 234 kts | 123° |
| 2026-04-19 21:27 | 37.60892 | -78.06706 | 9000 ft | 234 kts | 123° |
| 2026-04-19 21:28 | 37.60026 | -78.04958 | 8998 ft | 234 kts | 124° |
| 2026-04-19 21:28 | 37.59155 | -78.03212 | 9003 ft | 234 kts | 123° |
| 2026-04-19 21:28 | 37.58275 | -78.01437 | 9001 ft | 234 kts | 123° |
| 2026-04-19 21:28 | 37.57411 | -77.99693 | 9002 ft | 234 kts | 122° |
| 2026-04-19 21:29 | 37.56559 | -77.97945 | 9000 ft | 234 kts | 123° |
| 2026-04-19 21:29 | 37.55696 | -77.96197 | 8997 ft | 234 kts | 123° |
| 2026-04-19 21:29 | 37.54838 | -77.94462 | 9000 ft | 233 kts | 123° |
| 2026-04-19 21:29 | 37.54034 | -77.92690 | 8998 ft | 234 kts | 111° |
| 2026-04-19 21:30 | 37.53783 | -77.90672 | 8996 ft | 230 kts | 84° |
| 2026-04-19 21:30 | 37.53874 | -77.88643 | 8993 ft | 229 kts | 81° |
| 2026-04-19 21:30 | 37.53960 | -77.86633 | 8999 ft | 229 kts | 83° |
| 2026-04-19 21:30 | 37.53898 | -77.84619 | 9003 ft | 231 kts | 89° |
| 2026-04-19 21:31 | 37.53792 | -77.82572 | 9008 ft | 232 kts | 90° |
| 2026-04-19 21:31 | 37.53670 | -77.80521 | 8999 ft | 233 kts | 91° |
| 2026-04-19 21:31 | 37.53536 | -77.78471 | 8999 ft | 233 kts | 91° |
| 2026-04-19 21:31 | 37.53402 | -77.76437 | 8998 ft | 233 kts | 90° |
| 2026-04-19 21:32 | 37.53262 | -77.74390 | 9001 ft | 233 kts | 91° |
| 2026-04-19 21:32 | 37.53119 | -77.72339 | 8995 ft | 233 kts | 91° |
| 2026-04-19 21:32 | 37.52975 | -77.70279 | 8991 ft | 233 kts | 91° |
| 2026-04-19 21:32 | 37.52832 | -77.68219 | 8995 ft | 232 kts | 91° |
| 2026-04-19 21:33 | 37.52690 | -77.66184 | 9003 ft | 232 kts | 91° |
| 2026-04-19 21:33 | 37.52546 | -77.64143 | 8997 ft | 232 kts | 91° |
| 2026-04-19 21:33 | 37.52403 | -77.62128 | 8989 ft | 232 kts | 90° |
| 2026-04-19 21:33 | 37.52255 | -77.60094 | 9000 ft | 232 kts | 91° |
| 2026-04-19 21:34 | 37.52110 | -77.58058 | 9001 ft | 232 kts | 91° |
| 2026-04-19 21:34 | 37.51963 | -77.55990 | 9005 ft | 233 kts | 91° |
| 2026-04-19 21:34 | 37.51817 | -77.53973 | 9005 ft | 233 kts | 91° |
| 2026-04-19 21:34 | 37.51672 | -77.51929 | 9009 ft | 234 kts | 91° |
| 2026-04-19 21:35 | 37.51524 | -77.49869 | 9008 ft | 234 kts | 91° |
| 2026-04-19 21:35 | 37.51376 | -77.47786 | 9010 ft | 234 kts | 91° |
| 2026-04-19 21:35 | 37.51229 | -77.45740 | 9012 ft | 234 kts | 91° |
| 2026-04-19 21:35 | 37.51079 | -77.43670 | 9013 ft | 234 kts | 91° |
| 2026-04-19 21:36 | 37.50930 | -77.41621 | 9013 ft | 234 kts | 91° |
| 2026-04-19 21:36 | 37.50781 | -77.39574 | 9012 ft | 234 kts | 91° |
| 2026-04-19 21:36 | 37.50634 | -77.37522 | 9013 ft | 234 kts | 91° |
| 2026-04-19 21:36 | 37.50481 | -77.35442 | 9013 ft | 234 kts | 91° |
| 2026-04-19 21:37 | 37.50333 | -77.33398 | 9007 ft | 234 kts | 92° |
| 2026-04-19 21:37 | 37.50015 | -77.31381 | 9012 ft | 235 kts | 112° |
| 2026-04-19 21:37 | 37.49391 | -77.29436 | 9002 ft | 236 kts | 111° |
| 2026-04-19 21:37 | 37.48768 | -77.27514 | 8890 ft | 241 kts | 112° |
| 2026-04-19 21:38 | 37.48125 | -77.25537 | 8789 ft | 244 kts | 112° |
| 2026-04-19 21:38 | 37.47460 | -77.23489 | 8592 ft | 250 kts | 111° |
| 2026-04-19 21:38 | 37.46790 | -77.21427 | 8430 ft | 252 kts | 112° |
| 2026-04-19 21:38 | 37.46124 | -77.19376 | 8313 ft | 251 kts | 112° |
| 2026-04-19 21:39 | 37.45456 | -77.17327 | 8194 ft | 252 kts | 111° |
| 2026-04-19 21:39 | 37.44792 | -77.15286 | 8089 ft | 251 kts | 112° |
| 2026-04-19 21:39 | 37.44120 | -77.13230 | 7983 ft | 250 kts | 111° |
| 2026-04-19 21:39 | 37.43453 | -77.11180 | 7823 ft | 251 kts | 111° |
| 2026-04-19 21:40 | 37.42105 | -77.07054 | 7534 ft | 252 kts | 111° |
| 2026-04-19 21:40 | 37.41430 | -77.04994 | 7389 ft | 252 kts | 110° |
| 2026-04-19 21:40 | 37.40754 | -77.02922 | 7247 ft | 252 kts | 110° |
| 2026-04-19 21:41 | 37.40085 | -77.00876 | 7118 ft | 251 kts | 110° |
| 2026-04-19 21:41 | 37.39419 | -76.98833 | 6982 ft | 251 kts | 110° |
| 2026-04-19 21:41 | 37.38746 | -76.96783 | 6830 ft | 251 kts | 110° |
| 2026-04-19 21:41 | 37.38067 | -76.94712 | 6692 ft | 250 kts | 110° |
| 2026-04-19 21:42 | 37.37402 | -76.92682 | 6562 ft | 250 kts | 109° |
| 2026-04-19 21:42 | 37.36730 | -76.90635 | 6420 ft | 250 kts | 110° |
| 2026-04-19 21:42 | 37.36058 | -76.88588 | 6272 ft | 249 kts | 110° |
| 2026-04-19 21:42 | 37.35389 | -76.86554 | 6143 ft | 249 kts | 109° |
| 2026-04-19 21:43 | 37.34709 | -76.84559 | 6015 ft | 249 kts | 114° |
| 2026-04-19 21:43 | 37.34219 | -76.82468 | 5863 ft | 244 kts | 98° |
| 2026-04-19 21:43 | 37.33840 | -76.80361 | 5730 ft | 244 kts | 98° |
| 2026-04-19 21:43 | 37.33472 | -76.78275 | 5599 ft | 243 kts | 98° |
| 2026-04-19 21:44 | 37.33103 | -76.76202 | 5475 ft | 242 kts | 97° |
| 2026-04-19 21:44 | 37.32739 | -76.74145 | 5349 ft | 241 kts | 97° |
| 2026-04-19 21:44 | 37.32368 | -76.72049 | 5096 ft | 246 kts | 97° |
| 2026-04-19 21:44 | 37.31992 | -76.69933 | 4827 ft | 248 kts | 98° |
| 2026-04-19 21:45 | 37.31611 | -76.67807 | 4567 ft | 250 kts | 97° |
| 2026-04-19 21:45 | 37.31231 | -76.65671 | 4319 ft | 250 kts | 97° |
| 2026-04-19 21:45 | 37.30851 | -76.63537 | 4071 ft | 249 kts | 97° |
| 2026-04-19 21:45 | 37.30468 | -76.61386 | 3824 ft | 248 kts | 97° |
| 2026-04-19 21:46 | 37.30088 | -76.59266 | 3575 ft | 247 kts | 97° |
| 2026-04-19 21:46 | 37.29704 | -76.57140 | 3327 ft | 245 kts | 97° |
| 2026-04-19 21:46 | 37.29334 | -76.55070 | 3075 ft | 234 kts | 97° |
| 2026-04-19 21:46 | 37.28989 | -76.53151 | 2797 ft | 219 kts | 97° |
| 2026-04-19 21:47 | 37.28657 | -76.51296 | 2524 ft | 214 kts | 97° |
| 2026-04-19 21:47 | 37.28329 | -76.49471 | 2244 ft | 211 kts | 96° |
| 2026-04-19 21:47 | 37.28005 | -76.47667 | 2050 ft | 205 kts | 97° |
| 2026-04-19 21:47 | 37.27698 | -76.45970 | 2019 ft | 193 kts | 96° |
| 2026-04-19 21:48 | 37.27408 | -76.44357 | 2019 ft | 183 kts | 96° |
| 2026-04-19 21:48 | 37.27130 | -76.42816 | 2018 ft | 176 kts | 96° |
| 2026-04-19 21:48 | 37.26857 | -76.41309 | 2022 ft | 171 kts | 95° |
| 2026-04-19 21:48 | 37.26597 | -76.39861 | 2022 ft | 168 kts | 96° |
| 2026-04-19 21:49 | 37.26338 | -76.38431 | 2018 ft | 165 kts | 95° |
| 2026-04-19 21:49 | 37.26080 | -76.37000 | 2022 ft | 163 kts | 95° |
| 2026-04-19 21:49 | 37.25831 | -76.35618 | 2020 ft | 161 kts | 95° |
| 2026-04-19 21:49 | 37.25583 | -76.34252 | 2023 ft | 160 kts | 96° |
| 2026-04-19 21:50 | 37.25326 | -76.32831 | 2030 ft | 172 kts | 96° |
| 2026-04-19 21:50 | 37.25050 | -76.31294 | 2029 ft | 183 kts | 96° |
| 2026-04-19 21:50 | 37.24689 | -76.29736 | 2021 ft | 196 kts | 115° |
| 2026-04-19 21:50 | 37.23607 | -76.28609 | 2027 ft | 205 kts | 161° |
| 2026-04-19 21:51 | 37.22188 | -76.28625 | 2025 ft | 201 kts | 206° |
| 2026-04-19 21:51 | 37.21214 | -76.29711 | 2022 ft | 175 kts | 252° |
| 2026-04-19 21:51 | 37.20878 | -76.31078 | 2105 ft | 147 kts | 277° |
| 2026-04-19 21:51 | 37.20891 | -76.32285 | 2193 ft | 135 kts | 270° |
| 2026-04-19 21:52 | 37.20647 | -76.33398 | 2255 ft | 125 kts | 261° |
| 2026-04-19 21:52 | 37.20309 | -76.34375 | 2216 ft | 118 kts | 256° |
| 2026-04-19 21:52 | 37.19931 | -76.35290 | 2155 ft | 116 kts | 253° |
| 2026-04-19 21:52 | 37.19530 | -76.36166 | 2069 ft | 114 kts | 252° |
| 2026-04-19 21:53 | 37.19118 | -76.37028 | 1966 ft | 114 kts | 251° |
| 2026-04-19 21:53 | 37.18698 | -76.37874 | 1846 ft | 113 kts | 251° |
| 2026-04-19 21:53 | 37.18274 | -76.38723 | 1715 ft | 114 kts | 250° |
| 2026-04-19 21:53 | 37.17847 | -76.39571 | 1578 ft | 115 kts | 249° |
| 2026-04-19 21:54 | 37.17415 | -76.40430 | 1432 ft | 117 kts | 248° |
| 2026-04-19 21:54 | 37.16969 | -76.41316 | 1270 ft | 122 kts | 246° |
| 2026-04-19 21:54 | 37.16506 | -76.42230 | 1110 ft | 128 kts | 246° |
| 2026-04-19 21:54 | 37.16018 | -76.43195 | 934 ft | 131 kts | 245° |
| 2026-04-19 21:55 | 37.15561 | -76.44093 | 754 ft | 111 kts | 246° |
| 2026-04-19 21:55 | 37.15181 | -76.44836 | 617 ft | 98 kts | 244° |
| 2026-04-19 21:55 | 37.14820 | -76.45551 | 490 ft | 95 kts | 244° |
| 2026-04-19 21:55 | 37.14465 | -76.46259 | 368 ft | 99 kts | 245° |
| 2026-04-19 21:56 | 37.14096 | -76.46992 | 233 ft | 99 kts | 244° |
| 2026-04-19 21:56 | 37.13758 | -76.47656 | 128 ft | 94 kts | 240° |
| 2026-04-19 21:56 | 37.13473 | -76.48257 | 33 ft | 28 kts | 231° |
| 2026-04-19 21:56 | 37.13412 | -76.48352 | 34 ft | 22 kts | 235° |
| 2026-04-19 21:57 | 37.13296 | -76.48575 | 34 ft | 35 kts | 236° |
| 2026-04-19 21:57 | 37.13158 | -76.48843 | 34 ft | 37 kts | 237° |
| 2026-04-19 21:57 | 37.13024 | -76.49099 | 34 ft | 17 kts | 241° |
| 2026-04-19 21:57 | 37.13068 | -76.49258 | 34 ft | 20 kts | 284° |
| 2026-04-19 21:58 | 37.13092 | -76.49422 | 34 ft | 18 kts | 282° |
| 2026-04-19 21:58 | 37.13121 | -76.49585 | 34 ft | 19 kts | 283° |
| 2026-04-19 21:58 | 37.13154 | -76.49756 | 34 ft | 20 kts | 284° |
| 2026-04-19 21:58 | 37.13184 | -76.49873 | 34 ft | 12 kts | 305° |
| 2026-04-19 21:59 | 37.13280 | -76.49902 | 35 ft | 17 kts | 340° |
| 2026-04-19 21:59 | 37.13397 | -76.49934 | 37 ft | 19 kts | 5° |
| 2026-04-19 21:59 | 37.13493 | -76.49908 | 37 ft | 4 kts | 18° |
| 2026-04-19 21:59 | 37.13507 | -76.49908 | 37 ft | 12 kts | 329° |
| 2026-04-19 22:00 | 37.13644 | -76.49889 | 37 ft | 23 kts | 16° |
| 2026-04-19 22:00 | 37.13744 | -76.49853 | 37 ft | 13 kts | 22° |
| 2026-04-19 22:00 | 37.13813 | -76.49852 | 37 ft | 15 kts | 217° |
| 2026-04-19 22:00 | 37.13806 | -76.49855 | 37 ft | 0 kts | 185° |